createdAt,value
2024-01-24T00:01:39.590Z,2.27
2024-01-24T00:04:09.324Z,2.10
2024-01-24T00:06:38.773Z,2.33
2024-01-24T00:09:06.895Z,2.47
2024-01-24T00:11:35.050Z,1.60
2024-01-24T00:14:03.173Z,2.13
2024-01-24T00:16:31.283Z,1.40
2024-01-24T00:18:59.334Z,2.23
2024-01-24T00:21:28.712Z,1.87
2024-01-24T00:23:56.636Z,1.70
2024-01-24T00:26:24.572Z,1.87
2024-01-24T00:28:52.493Z,1.87
2024-01-24T00:31:20.482Z,1.60
2024-01-24T00:33:48.618Z,1.70
2024-01-24T00:36:16.678Z,1.80
2024-01-24T00:38:45.919Z,1.83
2024-01-24T00:41:13.817Z,1.80
2024-01-24T00:43:41.710Z,1.77
2024-01-24T00:46:10.026Z,1.63
2024-01-24T00:48:38.069Z,1.90
2024-01-24T00:51:06.225Z,1.70
2024-01-24T00:53:36.160Z,2.00
2024-01-24T00:56:06.123Z,1.60
2024-01-24T00:58:34.112Z,1.63
2024-01-24T01:01:02.197Z,1.67
2024-01-24T01:03:30.273Z,2.10
2024-01-24T01:05:58.180Z,1.60
2024-01-24T01:08:25.981Z,2.07
2024-01-24T01:10:53.960Z,1.60
2024-01-24T01:13:23.270Z,1.57
2024-01-24T01:15:51.330Z,1.60
2024-01-24T01:18:19.284Z,1.70
2024-01-24T01:20:47.358Z,1.30
2024-01-24T01:23:15.259Z,1.63
2024-01-24T01:25:43.262Z,2.00
2024-01-24T01:28:11.196Z,2.23
2024-01-24T01:30:40.788Z,1.50
2024-01-24T01:33:08.882Z,1.90
2024-01-24T01:35:39.149Z,1.73
2024-01-24T01:38:07.173Z,2.30
2024-01-24T01:40:35.135Z,2.20
2024-01-24T01:43:03.154Z,1.87
2024-01-24T01:45:31.123Z,1.53
2024-01-24T01:48:00.686Z,1.90
2024-01-24T01:50:28.831Z,1.83
2024-01-24T01:52:57.035Z,2.00
2024-01-24T01:55:25.431Z,1.43
2024-01-24T01:57:53.541Z,1.67
2024-01-24T02:00:22.673Z,1.37
2024-01-24T02:02:51.195Z,1.83
2024-01-24T02:05:21.026Z,2.77
2024-01-24T02:07:49.199Z,1.97
2024-01-24T02:10:17.406Z,1.93
2024-01-24T02:12:45.570Z,1.60
2024-01-24T02:15:13.638Z,2.20
2024-01-24T02:17:41.591Z,1.43
2024-01-24T02:20:11.146Z,2.30
2024-01-24T02:22:40.572Z,1.93
2024-01-24T02:25:10.530Z,1.73
2024-01-24T02:27:38.456Z,1.23
2024-01-24T02:30:07.228Z,1.53
2024-01-24T02:32:35.152Z,1.50
2024-01-24T02:35:03.008Z,1.20
2024-01-24T02:37:31.506Z,1.13
2024-01-24T02:39:59.629Z,1.60
2024-01-24T02:42:29.625Z,1.13
2024-01-24T02:44:57.897Z,1.40
2024-01-24T02:47:26.571Z,1.30
2024-01-24T02:49:54.839Z,1.20
2024-01-24T02:52:22.903Z,1.43
2024-01-24T02:54:50.922Z,1.47
2024-01-24T02:57:19.056Z,1.83
2024-01-24T02:59:48.394Z,1.50
2024-01-24T03:02:16.348Z,1.73
2024-01-24T03:04:44.421Z,1.17
2024-01-24T03:07:12.465Z,1.17
2024-01-24T03:09:40.475Z,1.27
2024-01-24T03:12:08.790Z,1.10
2024-01-24T03:14:36.760Z,1.23
2024-01-24T03:17:06.475Z,1.53
2024-01-24T03:19:34.566Z,1.40
2024-01-24T03:22:02.624Z,1.43
2024-01-24T03:24:29.671Z,1.83
2024-01-24T03:26:57.671Z,1.47
2024-01-24T03:29:25.830Z,1.70
2024-01-24T03:31:53.781Z,2.20
2024-01-24T03:34:23.129Z,1.50
2024-01-24T03:36:51.270Z,1.60
2024-01-24T03:39:19.336Z,1.47
2024-01-24T03:41:47.280Z,1.30
2024-01-24T03:44:15.341Z,1.53
2024-01-24T03:46:43.149Z,1.20
2024-01-24T03:49:11.252Z,1.17
2024-01-24T03:51:41.207Z,1.40
2024-01-24T03:54:09.135Z,1.73
2024-01-24T03:56:37.007Z,0.97
2024-01-24T03:59:04.889Z,1.37
2024-01-24T04:01:32.873Z,1.13
2024-01-24T04:04:00.992Z,1.63
2024-01-24T04:06:28.981Z,1.60
2024-01-24T04:08:58.372Z,1.30
2024-01-24T04:11:26.615Z,1.60
2024-01-24T04:13:55.313Z,1.30
2024-01-24T04:16:23.328Z,1.43
2024-01-24T04:18:51.824Z,1.50
2024-01-24T04:21:20.036Z,1.90
2024-01-24T04:23:48.013Z,1.63
2024-01-24T04:26:17.357Z,1.43
2024-01-24T04:28:45.496Z,1.87
2024-01-24T04:31:13.375Z,1.83
2024-01-24T04:33:41.468Z,1.40
2024-01-24T04:36:10.594Z,1.40
2024-01-24T04:38:39.912Z,1.87
2024-01-24T04:41:10.492Z,1.60
2024-01-24T04:43:42.004Z,1.33
2024-01-24T04:46:15.209Z,1.30
2024-01-24T04:48:43.886Z,1.43
2024-01-24T04:51:13.234Z,1.33
2024-01-24T04:53:41.665Z,1.70
2024-01-24T04:56:10.102Z,1.80
2024-01-24T04:58:39.482Z,1.57
2024-01-24T05:01:07.795Z,1.23
2024-01-24T05:03:36.009Z,1.33
2024-01-24T05:06:10.215Z,1.40
2024-01-24T05:08:39.261Z,1.00
2024-01-24T05:11:07.916Z,1.10
2024-01-24T05:13:36.048Z,1.20
2024-01-24T05:16:05.756Z,1.40
2024-01-24T05:18:33.894Z,1.40
2024-01-24T05:21:03.502Z,1.27
2024-01-24T05:23:31.487Z,1.00
2024-01-24T05:25:59.483Z,1.10
2024-01-24T05:28:27.477Z,1.20
2024-01-24T05:30:55.566Z,1.33
2024-01-24T05:33:25.784Z,1.17
2024-01-24T05:35:53.946Z,0.87
2024-01-24T05:38:21.871Z,1.20
2024-01-24T05:40:49.888Z,0.80
2024-01-24T05:43:17.821Z,1.37
2024-01-24T05:45:45.775Z,0.90
2024-01-24T05:48:15.291Z,0.90
2024-01-24T05:50:44.750Z,0.90
2024-01-24T05:53:12.773Z,1.03
2024-01-24T05:55:40.840Z,1.10
2024-01-24T05:58:09.294Z,0.70
2024-01-24T06:00:37.493Z,1.10
2024-01-24T06:03:05.680Z,1.33
2024-01-24T06:05:34.003Z,1.17
2024-01-24T06:08:03.781Z,0.90
2024-01-24T06:10:32.144Z,1.00
2024-01-24T06:13:00.252Z,1.00
2024-01-24T06:15:28.740Z,1.00
2024-01-24T06:17:56.781Z,1.23
2024-01-24T06:20:24.768Z,1.03
2024-01-24T06:22:52.728Z,1.00
2024-01-24T06:25:22.571Z,1.00
2024-01-24T06:27:50.553Z,0.80
2024-01-24T06:30:22.649Z,0.90
2024-01-24T06:32:53.064Z,1.10
2024-01-24T06:35:22.063Z,1.00
2024-01-24T06:37:51.066Z,1.13
2024-01-24T06:40:21.093Z,1.43
2024-01-24T06:42:51.767Z,1.43
2024-01-24T06:45:20.034Z,0.90
2024-01-24T06:47:48.531Z,0.80
2024-01-24T06:50:18.941Z,0.93
2024-01-24T06:52:47.016Z,0.90
2024-01-24T06:55:16.139Z,1.00
2024-01-24T06:57:44.005Z,0.87
2024-01-24T07:00:13.607Z,0.83
2024-01-24T07:02:41.532Z,0.60
2024-01-24T07:05:09.936Z,0.90
2024-01-24T07:07:39.336Z,1.17
2024-01-24T07:10:12.059Z,0.93
2024-01-24T07:12:46.014Z,1.00
2024-01-24T07:15:17.027Z,1.10
2024-01-24T07:17:45.588Z,0.73
2024-01-24T07:20:14.210Z,1.23
2024-01-24T07:22:42.259Z,1.37
2024-01-24T07:25:10.947Z,1.20
2024-01-24T07:27:39.188Z,1.80
2024-01-24T07:30:08.338Z,0.90
2024-01-24T07:32:40.836Z,0.80
2024-01-24T07:35:12.625Z,2.10
2024-01-24T07:37:40.798Z,1.00
2024-01-24T07:40:09.820Z,1.37
2024-01-24T07:42:38.062Z,1.57
2024-01-24T07:45:06.803Z,1.30
2024-01-24T07:47:34.806Z,1.17
2024-01-24T07:50:05.741Z,1.53
2024-01-24T07:52:40.730Z,2.30
2024-01-24T07:55:12.219Z,1.60
2024-01-24T07:57:41.568Z,3.20
2024-01-24T08:00:17.119Z,2.20
2024-01-24T08:02:46.107Z,3.03
2024-01-24T08:05:18.693Z,1.67
2024-01-24T08:07:47.016Z,2.73
2024-01-24T08:10:16.860Z,1.23
2024-01-24T08:12:45.294Z,2.60
2024-01-24T08:15:13.640Z,2.03
2024-01-24T08:17:41.732Z,1.77
2024-01-24T08:20:10.555Z,1.17
2024-01-24T08:22:39.945Z,2.00
2024-01-24T08:25:09.451Z,1.57
2024-01-24T08:27:37.582Z,1.83
2024-01-24T08:30:07.109Z,1.90
2024-01-24T08:32:35.110Z,1.50
2024-01-24T08:35:03.228Z,1.10
2024-01-24T08:37:31.212Z,1.90
2024-01-24T08:40:00.654Z,1.50
2024-01-24T08:42:28.833Z,1.37
2024-01-24T08:44:57.117Z,1.83
2024-01-24T08:47:25.038Z,1.20
2024-01-24T08:49:55.237Z,1.43
2024-01-24T08:52:23.576Z,1.17
2024-01-24T08:54:51.769Z,1.43
2024-01-24T08:57:21.800Z,1.60
2024-01-24T08:59:49.826Z,1.33
2024-01-24T09:02:18.693Z,1.17
2024-01-24T09:04:47.790Z,1.63
2024-01-24T09:07:15.981Z,1.80
2024-01-24T09:09:44.046Z,1.90
2024-01-24T09:12:12.218Z,1.40
2024-01-24T09:14:41.568Z,1.37
2024-01-24T09:17:09.739Z,1.03
2024-01-24T09:19:39.229Z,2.00
2024-01-24T09:22:07.258Z,1.30
2024-01-24T09:24:35.188Z,1.00
2024-01-24T09:27:04.088Z,2.00
2024-01-24T09:29:32.076Z,1.60
2024-01-24T09:32:01.651Z,1.73
2024-01-24T09:34:29.693Z,1.00
2024-01-24T09:36:58.065Z,1.37
2024-01-24T09:39:27.066Z,1.57
2024-01-24T09:41:55.075Z,1.83
2024-01-24T09:44:25.297Z,1.63
2024-01-24T09:46:56.876Z,2.10
2024-01-24T09:49:26.791Z,2.00
2024-01-24T09:51:56.022Z,2.30
2024-01-24T09:54:25.853Z,2.00
2024-01-24T09:56:55.307Z,2.37
2024-01-24T09:59:23.305Z,1.80
2024-01-24T10:01:51.834Z,2.37
2024-01-24T10:04:20.482Z,2.30
2024-01-24T10:06:50.713Z,2.27
2024-01-24T10:09:22.613Z,2.40
2024-01-24T10:11:50.660Z,2.33
2024-01-24T10:14:20.488Z,2.10
2024-01-24T10:16:48.393Z,2.60
2024-01-24T10:19:16.421Z,2.23
2024-01-24T10:21:44.564Z,2.40
2024-01-24T10:24:13.924Z,2.27
2024-01-24T10:26:45.600Z,2.33
2024-01-24T10:29:13.862Z,3.13
2024-01-24T10:31:43.373Z,2.53
2024-01-24T10:34:12.284Z,2.57
2024-01-24T10:36:43.708Z,1.87
2024-01-24T10:39:16.411Z,2.33
2024-01-24T10:41:46.822Z,2.40
2024-01-24T10:44:21.051Z,2.77
2024-01-24T10:46:51.211Z,2.53
2024-01-24T10:49:21.567Z,2.60
2024-01-24T10:51:49.808Z,2.30
2024-01-24T10:54:19.814Z,2.53
2024-01-24T10:56:51.622Z,2.80
2024-01-24T10:59:20.262Z,2.60
2024-01-24T11:01:49.335Z,2.63
2024-01-24T11:04:23.034Z,2.30
2024-01-24T11:06:57.272Z,2.00
2024-01-24T11:09:32.720Z,2.47
2024-01-24T11:12:00.777Z,1.80
2024-01-24T11:14:31.730Z,2.53
2024-01-24T11:17:01.146Z,2.37
2024-01-24T11:19:31.381Z,3.03
2024-01-24T11:22:10.006Z,2.67
2024-01-24T11:24:53.616Z,3.57
2024-01-24T11:27:31.714Z,2.70
2024-01-24T11:30:01.594Z,2.47
2024-01-24T11:33:01.464Z,2.20
2024-01-24T11:35:34.201Z,3.07
2024-01-24T11:40:37.076Z,2.20
2024-01-24T11:43:06.400Z,1.90
2024-01-24T11:45:36.638Z,2.00
2024-01-24T11:48:08.381Z,2.43
2024-01-24T11:50:36.423Z,2.10
2024-01-24T11:53:05.346Z,2.07
2024-01-24T11:55:33.321Z,2.90
2024-01-24T11:58:04.212Z,1.90
2024-01-24T12:00:32.405Z,1.93
2024-01-24T12:03:00.349Z,2.90
2024-01-24T12:05:28.476Z,1.80
2024-01-24T12:07:57.080Z,2.83
2024-01-24T12:10:25.072Z,2.23
2024-01-24T12:12:53.274Z,2.43
2024-01-24T12:15:22.728Z,2.13
2024-01-24T12:17:51.351Z,2.10
2024-01-24T12:20:20.035Z,1.97
2024-01-24T12:22:48.903Z,2.00
2024-01-24T12:25:17.354Z,1.83
2024-01-24T12:27:45.671Z,1.60
2024-01-24T12:30:16.355Z,1.73
2024-01-24T12:32:46.928Z,2.17
2024-01-24T12:35:15.699Z,2.30
2024-01-24T12:37:43.921Z,2.50
2024-01-24T12:40:13.508Z,2.53
2024-01-24T12:42:42.199Z,2.30
2024-01-24T12:45:12.551Z,1.90
2024-01-24T12:47:40.687Z,3.13
2024-01-24T12:50:11.830Z,2.30
2024-01-24T12:52:40.604Z,2.17
2024-01-24T12:55:09.476Z,2.30
2024-01-24T12:57:37.975Z,2.70
2024-01-24T13:05:04.973Z,2.67
2024-01-24T13:07:34.682Z,3.33
2024-01-24T13:10:07.003Z,2.23
2024-01-24T13:12:36.534Z,2.73
2024-01-24T13:15:21.233Z,3.40
2024-01-24T13:17:49.298Z,2.27
2024-01-24T13:20:17.532Z,2.27
2024-01-24T13:22:46.801Z,3.20
2024-01-24T13:25:15.066Z,3.13
2024-01-24T13:27:44.838Z,2.40
2024-01-24T13:30:13.395Z,1.97
2024-01-24T13:32:41.423Z,3.40
2024-01-24T13:35:09.875Z,1.87
2024-01-24T13:37:38.633Z,3.30
2024-01-24T13:40:12.574Z,3.17
2024-01-24T13:42:41.688Z,2.10
2024-01-24T13:45:11.431Z,2.80
2024-01-24T13:47:40.101Z,2.33
2024-01-24T13:50:09.025Z,2.80
2024-01-24T13:52:37.203Z,4.33
2024-01-24T13:55:08.781Z,3.90
2024-01-24T13:57:42.038Z,2.27
2024-01-24T14:00:14.850Z,2.50
2024-01-24T14:02:44.540Z,3.33
2024-01-24T14:05:13.010Z,2.70
2024-01-24T14:07:44.494Z,2.90
2024-01-24T14:10:13.689Z,3.57
2024-01-24T14:12:43.725Z,2.90
2024-01-24T14:15:20.233Z,2.87
2024-01-24T14:17:57.030Z,3.07
2024-01-24T14:20:25.384Z,2.73
2024-01-24T14:22:53.531Z,2.70
2024-01-24T14:25:25.176Z,2.77
2024-01-24T14:27:55.718Z,2.93
2024-01-24T14:30:23.958Z,2.90
2024-01-24T14:32:52.237Z,2.43
2024-01-24T14:35:20.818Z,2.53
2024-01-24T14:37:49.703Z,3.20
2024-01-24T14:40:17.960Z,3.00
2024-01-24T14:42:46.350Z,2.43
2024-01-24T14:45:16.189Z,2.90
2024-01-24T14:47:44.585Z,2.80
2024-01-24T14:50:13.800Z,2.47
2024-01-24T14:52:41.973Z,2.50
2024-01-24T14:55:10.636Z,2.47
2024-01-24T14:57:39.172Z,2.63
2024-01-24T15:00:13.532Z,2.33
2024-01-24T15:02:45.106Z,4.53
2024-01-24T15:05:13.569Z,2.63
2024-01-24T15:07:42.484Z,2.73
2024-01-24T15:10:11.084Z,2.83
2024-01-24T15:12:40.118Z,2.33
2024-01-24T15:15:09.611Z,2.57
2024-01-24T15:17:37.901Z,2.77
2024-01-24T15:20:09.640Z,2.47
2024-01-24T15:22:39.740Z,2.77
2024-01-24T15:25:10.714Z,2.47
2024-01-24T15:27:39.077Z,2.33
2024-01-24T15:30:08.904Z,2.40
2024-01-24T15:32:37.159Z,2.70
2024-01-24T15:35:07.985Z,2.40
2024-01-24T15:37:36.791Z,2.80
2024-01-24T15:40:08.164Z,2.30
2024-01-24T15:42:43.057Z,2.20
2024-01-24T15:45:16.925Z,2.13
2024-01-24T15:47:48.235Z,1.90
2024-01-24T15:50:18.901Z,2.20
2024-01-24T15:52:47.868Z,2.70
2024-01-24T15:55:28.232Z,2.40
2024-01-24T15:57:56.600Z,2.87
2024-01-24T16:00:25.166Z,2.27
2024-01-24T16:02:53.754Z,2.40
2024-01-24T16:05:31.460Z,1.57
2024-01-24T16:07:59.871Z,2.17
2024-01-24T16:10:28.054Z,2.20
2024-01-24T16:12:56.498Z,2.23
2024-01-24T16:15:25.043Z,1.47
2024-01-24T16:17:53.238Z,2.17
2024-01-24T16:20:21.448Z,2.40
2024-01-24T16:22:55.925Z,2.13
2024-01-24T16:25:25.697Z,2.47
2024-01-24T16:27:54.393Z,3.33
2024-01-24T16:30:26.475Z,2.17
2024-01-24T16:32:55.356Z,2.13
2024-01-24T16:35:23.883Z,1.93
2024-01-24T16:37:53.748Z,2.50
2024-01-24T16:40:22.265Z,2.73
2024-01-24T16:42:50.717Z,1.90
2024-01-24T16:45:19.204Z,2.33
2024-01-24T16:47:47.334Z,1.93
2024-01-24T16:50:15.599Z,2.13
2024-01-24T16:52:49.685Z,2.30
2024-01-24T16:55:20.601Z,2.40
2024-01-24T16:57:48.724Z,2.37
2024-01-24T17:00:17.269Z,2.70
2024-01-24T17:02:50.375Z,2.20
2024-01-24T17:05:22.704Z,2.87
2024-01-24T17:07:52.347Z,1.80
2024-01-24T17:10:22.441Z,2.43
2024-01-24T17:12:51.525Z,2.17
2024-01-24T17:15:19.856Z,2.40
2024-01-24T17:17:47.920Z,2.60
2024-01-24T17:20:15.966Z,1.53
2024-01-24T17:22:43.942Z,2.63
2024-01-24T17:25:14.960Z,2.00
2024-01-24T17:27:44.485Z,1.80
2024-01-24T17:30:14.545Z,2.77
2024-01-24T17:32:43.371Z,2.47
2024-01-24T17:35:11.383Z,2.17
2024-01-24T17:37:39.578Z,3.00
2024-01-24T17:40:10.209Z,2.83
2024-01-24T17:42:38.624Z,2.23
2024-01-24T17:45:08.824Z,2.60
2024-01-24T17:47:36.932Z,2.37
2024-01-24T17:50:06.746Z,2.90
2024-01-24T17:52:35.829Z,2.67
2024-01-24T17:55:04.126Z,2.60
2024-01-24T17:57:32.175Z,2.50
2024-01-24T18:00:01.847Z,2.67
2024-01-24T18:02:31.794Z,2.30
2024-01-24T18:04:59.992Z,2.53
2024-01-24T18:07:29.721Z,2.63
2024-01-24T18:09:57.903Z,2.67
2024-01-24T18:12:25.924Z,2.67
2024-01-24T18:14:54.430Z,3.37
2024-01-24T18:17:22.508Z,2.40
2024-01-24T18:19:52.855Z,3.13
2024-01-24T18:22:21.530Z,2.30
2024-01-24T18:24:49.831Z,2.97
2024-01-24T18:27:18.123Z,3.50
2024-01-24T18:29:46.107Z,2.77
2024-01-24T18:32:14.877Z,2.23
2024-01-24T18:34:44.032Z,2.77
2024-01-24T18:37:16.787Z,3.07
2024-01-24T18:39:44.951Z,2.70
2024-01-24T18:42:13.384Z,3.27
2024-01-24T18:44:41.842Z,2.97
2024-01-24T18:47:10.009Z,2.50
2024-01-24T18:49:55.102Z,2.13
2024-01-24T18:52:24.604Z,3.00
2024-01-24T18:54:53.244Z,2.73
2024-01-24T18:57:21.472Z,2.70
2024-01-24T18:59:49.706Z,3.70
2024-01-24T19:02:19.756Z,2.53
2024-01-24T19:04:48.383Z,2.47
2024-01-24T19:07:17.110Z,3.37
2024-01-24T19:09:49.526Z,2.60
2024-01-24T19:12:19.206Z,3.17
2024-01-24T19:14:47.088Z,2.80
2024-01-24T19:17:15.610Z,2.93
2024-01-24T19:19:43.673Z,3.03
2024-01-24T19:22:12.130Z,3.03
2024-01-24T19:24:40.454Z,2.80
2024-01-24T19:27:10.125Z,3.27
2024-01-24T19:29:38.486Z,2.87
2024-01-24T19:32:07.513Z,2.97
2024-01-24T19:34:36.627Z,2.80
2024-01-24T19:37:05.084Z,2.53
2024-01-24T19:39:33.641Z,3.27
2024-01-24T19:42:01.685Z,3.27
2024-01-24T19:44:31.333Z,2.73
2024-01-24T19:46:59.408Z,2.87
2024-01-24T19:49:27.681Z,2.80
2024-01-24T19:51:56.255Z,3.33
2024-01-24T19:54:24.843Z,2.60
2024-01-24T19:56:52.842Z,3.43
2024-01-24T19:59:20.940Z,3.27
2024-01-24T20:01:50.199Z,2.67
2024-01-24T20:04:19.385Z,2.80
2024-01-24T20:06:47.393Z,2.43
2024-01-24T20:09:16.861Z,2.73
2024-01-24T20:11:44.901Z,2.90
2024-01-24T20:14:13.414Z,4.10
2024-01-24T20:16:41.991Z,3.27
2024-01-24T20:19:11.419Z,3.30
2024-01-24T20:21:42.557Z,3.10
2024-01-24T20:24:13.773Z,2.97
2024-01-24T20:26:41.941Z,2.90
2024-01-24T20:29:10.081Z,2.50
2024-01-24T20:31:38.187Z,4.17
2024-01-24T20:34:06.444Z,2.07
2024-01-24T20:36:36.740Z,3.00
2024-01-24T20:39:10.259Z,2.80
2024-01-24T20:41:38.326Z,2.50
2024-01-24T20:44:06.578Z,3.40
2024-01-24T20:46:43.336Z,3.30
2024-01-24T20:49:12.026Z,3.17
2024-01-24T20:51:41.498Z,3.77
2024-01-24T20:54:10.171Z,3.43
2024-01-24T20:56:38.239Z,2.73
2024-01-24T20:59:06.328Z,2.63
2024-01-24T21:01:36.603Z,3.80
2024-01-24T21:04:09.913Z,3.63
2024-01-24T21:06:38.453Z,3.17
2024-01-24T21:09:08.683Z,3.50
2024-01-24T21:11:37.100Z,2.67
2024-01-24T21:14:05.292Z,2.43
2024-01-24T21:16:33.361Z,3.53
2024-01-24T21:19:01.427Z,3.00
2024-01-24T21:21:29.465Z,3.03
2024-01-24T21:23:57.495Z,2.70
2024-01-24T21:26:27.696Z,4.10
2024-01-24T21:28:55.702Z,3.07
2024-01-24T21:31:24.703Z,2.70
2024-01-24T21:33:52.800Z,3.43
2024-01-24T21:36:21.002Z,3.13
2024-01-24T21:38:48.955Z,2.97
2024-01-24T21:41:17.649Z,2.57
2024-01-24T21:43:47.189Z,3.57
2024-01-24T21:46:15.506Z,2.30
2024-01-24T21:48:44.378Z,2.43
2024-01-24T21:51:12.692Z,3.57
2024-01-24T21:53:41.372Z,2.77
2024-01-24T21:56:09.422Z,3.50
2024-01-24T21:58:39.345Z,3.70
2024-01-24T22:01:09.059Z,2.33
2024-01-24T22:03:37.631Z,2.57
2024-01-24T22:06:06.428Z,3.33
2024-01-24T22:08:36.266Z,3.60
2024-01-24T22:11:04.224Z,3.27
2024-01-24T22:13:32.234Z,3.20
2024-01-24T22:16:01.132Z,2.83
2024-01-24T22:18:36.897Z,3.00
2024-01-24T22:21:12.707Z,3.47
2024-01-24T22:23:41.300Z,3.53
2024-01-24T22:26:09.735Z,2.37
2024-01-24T22:28:37.665Z,2.60
2024-01-24T22:31:06.378Z,2.93
2024-01-24T22:33:36.466Z,2.43
2024-01-24T22:36:04.700Z,3.00
2024-01-24T22:38:32.689Z,2.50
2024-01-24T22:41:00.663Z,3.33
2024-01-24T22:43:28.551Z,2.90
2024-01-24T22:45:56.558Z,2.77
2024-01-24T22:48:24.551Z,2.57
2024-01-24T22:50:53.881Z,4.10
2024-01-24T22:53:22.555Z,2.73
2024-01-24T22:55:50.608Z,3.70
2024-01-24T22:58:18.971Z,3.63
2024-01-24T23:00:47.203Z,3.20
2024-01-24T23:03:15.279Z,2.67
2024-01-24T23:05:45.879Z,2.67
2024-01-24T23:08:17.857Z,2.03
2024-01-24T23:10:48.910Z,2.73
2024-01-24T23:13:17.085Z,4.07
2024-01-24T23:15:45.138Z,3.37
2024-01-24T23:18:13.137Z,3.17
2024-01-24T23:20:41.260Z,3.37
2024-01-24T23:23:10.144Z,2.57
2024-01-24T23:25:41.576Z,2.97
2024-01-24T23:28:09.628Z,2.80
2024-01-24T23:30:37.514Z,2.13
2024-01-24T23:33:06.136Z,3.10
2024-01-24T23:35:34.237Z,3.20
2024-01-24T23:38:02.314Z,2.40
2024-01-24T23:40:30.442Z,3.17
2024-01-24T23:42:59.740Z,3.07
2024-01-24T23:45:28.236Z,2.57
2024-01-24T23:47:56.404Z,4.03
2024-01-24T23:50:24.787Z,3.80
2024-01-24T23:52:57.927Z,2.33
2024-01-24T23:55:26.497Z,3.13
2024-01-24T23:57:55.319Z,2.60
